Time;durP1;ratioP1;P1;durP2;ratioP2;P2;SDS_P1;SDS_P2;PMS_P1;PMS_P2;Temp;Humidity;BMP_temperature;BMP_pressure;BME280_temperature;BME280_humidity;BME280_pressure;Samples;Min_cycle;Max_cycle;Signal;HPM_P1;HPM_P2
2020/12/24 00:02:22;;;;;;;14.67;4.40;;;10.40;99.90;;;;;;5134346;28;20245;-83
2020/12/24 00:04:47;;;;;;;12.20;4.10;;;10.20;99.90;;;;;;5118786;28;20253;-83
2020/12/24 00:07:13;;;;;;;13.57;4.13;;;10.30;99.90;;;;;;5120192;28;20158;-83
2020/12/24 00:09:39;;;;;;;16.63;4.47;;;10.30;99.90;;;;;;5133751;28;20229;-83
2020/12/24 00:12:04;;;;;;;12.43;3.73;;;10.30;99.90;;;;;;5136200;28;20221;-84
2020/12/24 00:14:30;;;;;;;16.13;4.60;;;10.20;99.90;;;;;;5120847;27;20234;-84
2020/12/24 00:16:56;;;;;;;13.33;3.67;;;10.20;99.90;;;;;;5147501;27;20192;-83
2020/12/24 00:19:21;;;;;;;15.07;4.00;;;10.20;99.90;;;;;;5115558;28;20205;-83
2020/12/24 00:21:47;;;;;;;14.60;4.03;;;10.20;99.90;;;;;;5120535;28;20178;-83
2020/12/24 00:24:14;;;;;;;14.10;4.57;;;10.20;99.90;;;;;;5104351;28;20630;-83
2020/12/24 00:26:40;;;;;;;17.73;4.47;;;10.10;99.90;;;;;;5118269;28;20178;-84
2020/12/24 00:29:07;;;;;;;16.13;4.20;;;10.10;99.90;;;;;;5103237;28;20246;-83
2020/12/24 00:31:39;;;;;;;13.90;4.00;;;10.10;99.90;;;;;;5120028;28;20596;-84
2020/12/24 00:34:06;;;;;;;19.10;3.77;;;10.10;99.90;;;;;;5119213;28;20256;-84
2020/12/24 00:36:32;;;;;;;15.73;4.03;;;10.00;99.90;;;;;;5094896;28;20196;-86
2020/12/24 00:38:57;;;;;;;14.37;3.67;;;9.90;99.90;;;;;;5119747;28;20221;-85
2020/12/24 00:41:24;;;;;;;12.57;3.87;;;9.90;99.90;;;;;;5115787;28;20324;-84
2020/12/24 00:43:49;;;;;;;15.47;4.00;;;9.70;99.90;;;;;;5117779;28;20177;-84
2020/12/24 00:46:15;;;;;;;14.50;3.93;;;9.70;99.90;;;;;;5116317;28;20178;-84
2020/12/24 00:48:41;;;;;;;12.77;3.83;;;9.70;99.90;;;;;;5118314;28;20173;-83
2020/12/24 00:51:06;;;;;;;18.50;4.87;;;9.60;99.90;;;;;;5101198;28;20212;-82
2020/12/24 00:53:32;;;;;;;10.50;3.80;;;9.60;99.90;;;;;;5099053;28;20244;-83
2020/12/24 00:55:58;;;;;;;21.33;5.73;;;9.60;99.90;;;;;;5094417;28;20631;-83
2020/12/24 00:58:24;;;;;;;21.67;6.03;;;9.60;99.90;;;;;;5090500;28;20220;-83
2020/12/24 01:00:49;;;;;;;19.00;6.70;;;9.70;99.90;;;;;;5112591;28;20201;-83
2020/12/24 01:03:15;;;;;;;15.47;6.30;;;9.60;99.90;;;;;;5095168;28;20177;-82
2020/12/24 01:05:40;;;;;;;18.33;7.63;;;9.50;99.90;;;;;;5112733;28;20177;-82
2020/12/24 01:08:06;;;;;;;19.77;7.80;;;9.40;99.90;;;;;;5111978;28;20209;-83
2020/12/24 01:10:32;;;;;;;25.10;9.17;;;9.40;99.90;;;;;;5111786;28;20268;-84
2020/12/24 01:12:57;;;;;;;24.57;9.73;;;9.50;99.90;;;;;;5095582;28;20215;-83
2020/12/24 01:15:23;;;;;;;22.43;9.40;;;9.50;99.90;;;;;;5111881;28;20269;-84
2020/12/24 01:17:49;;;;;;;28.40;9.50;;;9.50;99.90;;;;;;5112109;28;20189;-84
2020/12/24 01:20:15;;;;;;;20.40;7.97;;;9.50;99.90;;;;;;5097136;28;20197;-85
2020/12/24 01:22:40;;;;;;;18.77;8.67;;;9.60;99.90;;;;;;5092528;28;20540;-85
2020/12/24 01:25:06;;;;;;;17.20;7.97;;;9.60;99.90;;;;;;5078304;28;20204;-84
2020/12/24 01:27:32;;;;;;;22.73;8.03;;;9.60;99.90;;;;;;5115169;28;20178;-84
2020/12/24 01:29:58;;;;;;;22.67;8.03;;;9.60;99.90;;;;;;5094100;28;20210;-84
2020/12/24 01:32:24;;;;;;;15.63;6.57;;;9.50;99.90;;;;;;5117242;28;20181;-83
2020/12/24 01:34:49;;;;;;;17.60;5.07;;;9.60;99.90;;;;;;5077838;28;20196;-85
2020/12/24 01:37:15;;;;;;;14.00;4.27;;;9.50;99.90;;;;;;5082781;28;20641;-83
2020/12/24 01:39:41;;;;;;;15.23;5.17;;;9.50;99.90;;;;;;5089818;28;20201;-84
2020/12/24 01:42:07;;;;;;;14.87;4.53;;;9.60;99.90;;;;;;5115905;28;20174;-83
2020/12/24 01:44:32;;;;;;;12.70;4.00;;;9.60;99.90;;;;;;5100718;28;20177;-85
2020/12/24 01:46:58;;;;;;;14.70;3.97;;;9.70;99.90;;;;;;5121683;27;20189;-84
2020/12/24 01:49:24;;;;;;;10.40;3.17;;;9.70;99.90;;;;;;5118241;28;20193;-84
2020/12/24 01:51:52;;;;;;;14.50;3.40;;;9.60;99.90;;;;;;5081597;28;20186;-86
2020/12/24 01:54:19;;;;;;;15.77;3.77;;;9.60;99.90;;;;;;5101386;28;20557;-84
2020/12/24 01:56:46;;;;;;;15.70;4.20;;;9.50;99.90;;;;;;5101939;28;20213;-83
2020/12/24 01:59:15;;;;;;;18.53;4.43;;;9.50;99.90;;;;;;5118555;28;20186;-83
2020/12/24 02:01:48;;;;;;;20.33;6.03;;;9.50;99.90;;;;;;5119217;28;20178;-84
2020/12/24 02:04:14;;;;;;;14.47;5.97;;;9.50;99.90;;;;;;5118678;28;20170;-83
2020/12/24 02:06:46;;;;;;;19.47;6.23;;;9.50;99.90;;;;;;5117517;28;20730;-84
2020/12/24 02:09:12;;;;;;;18.73;6.27;;;9.60;99.90;;;;;;5118552;28;20680;-83
2020/12/24 02:11:39;;;;;;;17.90;6.73;;;9.50;99.90;;;;;;5102873;28;20178;-84
2020/12/24 02:14:05;;;;;;;19.03;7.53;;;9.50;99.90;;;;;;5102894;28;20552;-85
2020/12/24 02:16:34;;;;;;;19.07;6.97;;;9.50;99.90;;;;;;5094525;28;20185;-84
2020/12/24 02:19:01;;;;;;;18.93;7.57;;;9.50;99.90;;;;;;5106562;28;20181;-85
2020/12/24 02:21:26;;;;;;;20.13;7.20;;;9.50;99.90;;;;;;5104146;28;20708;-84
2020/12/24 02:23:52;;;;;;;21.90;6.83;;;9.50;99.90;;;;;;5105235;28;20177;-84
2020/12/24 02:26:18;;;;;;;21.30;6.63;;;9.60;99.90;;;;;;5103736;28;20181;-85
2020/12/24 02:28:43;;;;;;;17.60;6.03;;;9.60;99.90;;;;;;5123456;28;20182;-86
2020/12/24 02:31:09;;;;;;;14.60;5.23;;;9.50;99.90;;;;;;5102586;28;20195;-85
2020/12/24 02:33:35;;;;;;;21.23;6.23;;;9.50;99.90;;;;;;5085976;28;20624;-87
2020/12/24 02:36:02;;;;;;;15.23;4.50;;;9.40;99.90;;;;;;5122786;28;20204;-86
2020/12/24 02:38:28;;;;;;;19.43;5.20;;;9.30;99.90;;;;;;5119545;28;20178;-86
2020/12/24 02:40:53;;;;;;;17.73;5.10;;;9.30;99.90;;;;;;5083549;28;20244;-84
2020/12/24 02:43:39;;;;;;;13.77;4.50;;;9.30;99.90;;;;;;5078269;28;20181;-84
2020/12/24 02:46:04;;;;;;;11.87;4.13;;;9.30;99.90;;;;;;5119991;28;20256;-86
2020/12/24 02:48:30;;;;;;;12.23;3.87;;;9.40;99.90;;;;;;5100355;28;20643;-85
2020/12/24 02:50:56;;;;;;;14.47;3.17;;;9.40;99.90;;;;;;5120841;28;20173;-85
2020/12/24 02:53:21;;;;;;;13.00;3.77;;;9.40;99.90;;;;;;5069073;28;20174;-86
2020/12/24 02:55:47;;;;;;;9.00;2.93;;;9.20;99.90;;;;;;5092120;28;20591;-85
2020/12/24 02:58:13;;;;;;;13.77;3.13;;;9.20;99.90;;;;;;5103208;28;20189;-85
2020/12/24 03:00:38;;;;;;;10.87;3.63;;;9.20;99.90;;;;;;5093469;28;20202;-83
2020/12/24 03:03:04;;;;;;;12.57;3.67;;;9.20;99.90;;;;;;5119952;28;20182;-84
2020/12/24 03:05:29;;;;;;;10.93;3.20;;;9.10;99.90;;;;;;5112799;28;20179;-84
2020/12/24 03:07:55;;;;;;;9.60;2.93;;;9.20;99.90;;;;;;5095072;28;20698;-83
2020/12/24 03:10:21;;;;;;;12.20;2.90;;;9.20;99.90;;;;;;5089588;28;20178;-83
2020/12/24 03:12:46;;;;;;;11.63;3.27;;;9.20;99.90;;;;;;5080254;28;20186;-83
2020/12/24 03:15:12;;;;;;;14.23;3.43;;;9.20;99.90;;;;;;5120567;28;20283;-83
2020/12/24 03:17:38;;;;;;;12.33;3.33;;;9.20;99.90;;;;;;5124258;28;20185;-83
2020/12/24 03:20:07;;;;;;;16.93;3.73;;;9.20;99.90;;;;;;5088263;28;20205;-84
2020/12/24 03:22:34;;;;;;;14.10;3.30;;;9.10;99.90;;;;;;5114604;28;20254;-83
2020/12/24 03:24:59;;;;;;;9.73;2.77;;;9.20;99.90;;;;;;5103050;28;20237;-83
2020/12/24 03:27:25;;;;;;;13.23;3.20;;;9.20;99.90;;;;;;5101674;28;20198;-83
2020/12/24 03:29:51;;;;;;;11.10;3.23;;;9.20;99.90;;;;;;5100034;28;20602;-85
2020/12/24 03:32:16;;;;;;;12.43;3.40;;;9.20;99.90;;;;;;5094412;28;20672;-83
2020/12/24 03:34:42;;;;;;;12.10;3.17;;;9.10;99.90;;;;;;5088960;28;20240;-83
2020/12/24 03:37:07;;;;;;;12.47;3.07;;;9.00;99.90;;;;;;5125823;28;20195;-83
2020/12/24 03:39:33;;;;;;;13.03;3.20;;;9.00;99.90;;;;;;5106446;28;20197;-83
2020/12/24 03:41:59;;;;;;;13.03;3.30;;;9.10;99.90;;;;;;5087331;28;20202;-84
2020/12/24 03:44:24;;;;;;;14.40;3.40;;;9.20;99.90;;;;;;5089765;28;20746;-84
2020/12/24 03:46:50;;;;;;;12.60;3.30;;;9.20;99.90;;;;;;5088310;28;20182;-83
2020/12/24 03:49:15;;;;;;;14.67;3.80;;;8.80;99.90;;;;;;5104810;28;20174;-83
2020/12/24 03:51:41;;;;;;;12.00;3.50;;;8.70;99.90;;;;;;5121735;28;20182;-83
2020/12/24 03:54:07;;;;;;;18.50;3.80;;;8.70;99.90;;;;;;5094751;28;20914;-83
2020/12/24 03:56:32;;;;;;;12.87;3.00;;;8.60;99.90;;;;;;5095243;28;20658;-83
2020/12/24 03:58:58;;;;;;;18.63;3.63;;;8.60;99.90;;;;;;5132724;28;20166;-83
2020/12/24 04:01:26;;;;;;;17.67;3.53;;;8.60;99.90;;;;;;5095520;28;20216;-83
2020/12/24 04:03:53;;;;;;;10.10;2.90;;;8.60;99.90;;;;;;5124971;28;20190;-82
2020/12/24 04:06:18;;;;;;;13.23;3.27;;;8.60;99.90;;;;;;5129540;28;20184;-83
2020/12/24 04:08:44;;;;;;;12.47;3.27;;;8.60;99.90;;;;;;5107513;28;20581;-83
2020/12/24 04:11:10;;;;;;;12.73;2.90;;;8.80;99.90;;;;;;5130988;28;20174;-83
2020/12/24 04:13:35;;;;;;;11.63;2.93;;;8.80;99.90;;;;;;5132631;28;20177;-83
2020/12/24 04:16:01;;;;;;;15.10;3.57;;;8.80;99.90;;;;;;5114261;28;20323;-83
2020/12/24 04:18:27;;;;;;;9.83;2.87;;;8.80;99.90;;;;;;5131428;28;20186;-83
2020/12/24 04:20:53;;;;;;;11.00;3.00;;;8.70;99.90;;;;;;5114611;28;20250;-83
2020/12/24 04:23:18;;;;;;;9.33;3.10;;;8.90;99.90;;;;;;5131228;28;20249;-84
2020/12/24 04:25:44;;;;;;;14.60;3.33;;;8.90;99.90;;;;;;5130702;28;20162;-84
2020/12/24 04:28:10;;;;;;;15.83;3.43;;;8.80;99.90;;;;;;5092010;28;20182;-84
2020/12/24 04:30:35;;;;;;;15.53;3.90;;;8.90;99.90;;;;;;5124249;28;20711;-83
2020/12/24 04:33:01;;;;;;;11.93;3.73;;;8.90;99.90;;;;;;5114599;28;20190;-83
2020/12/24 04:35:27;;;;;;;11.47;3.13;;;8.90;99.90;;;;;;5115503;28;20264;-83
2020/12/24 04:37:52;;;;;;;9.70;2.63;;;8.80;99.90;;;;;;5097025;28;20189;-83
2020/12/24 04:40:18;;;;;;;12.30;2.90;;;8.80;99.90;;;;;;5135497;28;20221;-83
2020/12/24 04:42:45;;;;;;;11.00;3.17;;;8.70;99.90;;;;;;5116806;28;20190;-83
2020/12/24 04:45:11;;;;;;;8.37;3.07;;;8.70;99.90;;;;;;5133578;28;20165;-83
2020/12/24 04:47:41;;;;;;;8.80;3.30;;;8.50;99.90;;;;;;5114291;28;20186;-83
2020/12/24 04:50:07;;;;;;;9.53;3.37;;;8.50;99.90;;;;;;5113130;28;20197;-83
2020/12/24 04:52:34;;;;;;;16.27;3.77;;;8.60;99.90;;;;;;5135830;28;20178;-83
2020/12/24 04:55:04;;;;;;;19.63;4.03;;;8.50;99.90;;;;;;5133980;28;20207;-83
2020/12/24 04:57:31;;;;;;;14.83;3.23;;;8.40;99.90;;;;;;5133802;28;20184;-83
2020/12/24 04:59:59;;;;;;;12.17;2.87;;;8.40;99.90;;;;;;5116518;28;20194;-83
2020/12/24 05:02:25;;;;;;;16.27;3.70;;;8.60;99.90;;;;;;5116347;28;20154;-83
2020/12/24 05:04:55;;;;;;;12.97;3.27;;;8.50;99.90;;;;;;5130078;28;20174;-84
2020/12/24 05:07:20;;;;;;;15.10;3.13;;;8.50;99.90;;;;;;5135834;28;20173;-84
2020/12/24 05:09:50;;;;;;;13.43;3.23;;;8.60;99.90;;;;;;5138306;28;20228;-84
2020/12/24 05:12:32;;;;;;;11.40;3.07;;;8.50;99.90;;;;;;5137717;28;20195;-84
2020/12/24 05:14:58;;;;;;;14.80;3.40;;;8.60;99.90;;;;;;5120072;28;20193;-84
2020/12/24 05:17:24;;;;;;;11.03;3.00;;;8.50;99.90;;;;;;5135001;28;20182;-84
2020/12/24 05:20:02;;;;;;;9.77;3.33;;;8.50;99.90;;;;;;5134444;28;20265;-84
2020/12/24 05:22:28;;;;;;;11.50;3.07;;;8.60;99.90;;;;;;5136854;28;20203;-84
2020/12/24 05:25:10;;;;;;;15.87;3.60;;;8.70;99.90;;;;;;5137133;28;20169;-84
2020/12/24 05:27:40;;;;;;;13.77;3.43;;;8.60;99.90;;;;;;5136754;28;20161;-84
2020/12/24 05:30:06;;;;;;;13.23;3.37;;;8.70;99.90;;;;;;5138294;28;20185;-83
2020/12/24 05:32:33;;;;;;;11.37;3.70;;;8.60;99.90;;;;;;5116493;28;20245;-80
2020/12/24 05:35:04;;;;;;;14.87;3.47;;;8.50;99.90;;;;;;5117738;28;20239;-84
2020/12/24 05:37:31;;;;;;;13.70;3.47;;;8.50;99.90;;;;;;5117387;28;20170;-84
2020/12/24 05:39:56;;;;;;;13.53;3.53;;;8.50;99.90;;;;;;5111616;28;20190;-83
2020/12/24 05:42:24;;;;;;;13.37;3.23;;;8.40;99.90;;;;;;5106020;28;20171;-83
2020/12/24 05:44:50;;;;;;;11.97;3.53;;;8.40;99.90;;;;;;5083613;28;20270;-83
2020/12/24 05:47:26;;;;;;;12.03;3.70;;;8.30;99.90;;;;;;5102163;28;20203;-84
2020/12/24 05:49:52;;;;;;;13.17;3.77;;;8.40;99.90;;;;;;5118974;28;20691;-83
2020/12/24 05:52:17;;;;;;;17.23;4.00;;;8.50;99.90;;;;;;5091093;28;20174;-84
2020/12/24 05:54:46;;;;;;;20.17;3.93;;;8.50;99.90;;;;;;5104361;28;20185;-83
2020/12/24 05:57:12;;;;;;;18.67;4.10;;;8.50;99.90;;;;;;5117849;28;20653;-83
2020/12/24 05:59:40;;;;;;;15.87;4.00;;;8.50;99.90;;;;;;5122057;28;20245;-83
2020/12/24 06:02:15;;;;;;;9.30;3.53;;;8.50;99.90;;;;;;5119794;28;20174;-83
2020/12/24 06:04:44;;;;;;;12.17;3.90;;;8.40;99.90;;;;;;5119320;28;20192;-83
2020/12/24 06:07:20;;;;;;;10.03;3.50;;;8.40;99.90;;;;;;5119584;28;20178;-84
2020/12/24 06:09:48;;;;;;;10.93;3.90;;;8.50;99.90;;;;;;5118601;28;20158;-83
2020/12/24 06:12:24;;;;;;;12.27;3.60;;;8.40;99.90;;;;;;5117859;28;20177;-83
2020/12/24 06:14:54;;;;;;;13.37;4.37;;;8.50;99.90;;;;;;5118663;28;20214;-82
2020/12/24 06:17:21;;;;;;;14.80;4.10;;;8.50;99.90;;;;;;5123315;28;20264;-81
2020/12/24 06:19:48;;;;;;;15.93;4.20;;;8.50;99.90;;;;;;5122079;28;20201;-81
2020/12/24 06:22:19;;;;;;;11.33;4.17;;;8.50;99.90;;;;;;5102205;28;20523;-81
2020/12/24 06:24:50;;;;;;;11.00;4.47;;;8.60;99.90;;;;;;5105334;28;20614;-81
2020/12/24 06:27:46;;;;;;;13.03;4.27;;;8.70;99.90;;;;;;5124719;28;20571;-82
2020/12/24 06:30:24;;;;;;;19.23;4.97;;;8.70;99.90;;;;;;5122921;28;20194;-82
2020/12/24 06:32:51;;;;;;;13.53;5.10;;;8.50;99.90;;;;;;5103614;28;20182;-82
2020/12/24 06:35:35;;;;;;;14.20;5.20;;;8.50;99.90;;;;;;5122636;28;20200;-82
2020/12/24 06:38:02;;;;;;;11.63;5.70;;;8.60;99.90;;;;;;5120730;28;20314;-82
2020/12/24 06:40:30;;;;;;;11.27;5.30;;;8.50;99.90;;;;;;5123704;28;20188;-83
2020/12/24 06:42:55;;;;;;;14.70;5.90;;;8.50;99.90;;;;;;5117045;28;20174;-81
2020/12/24 06:45:21;;;;;;;10.87;5.67;;;8.30;99.90;;;;;;5099434;28;20656;-82
2020/12/24 06:48:16;;;;;;;11.90;6.23;;;8.30;99.90;;;;;;5111950;28;20181;-82
2020/12/24 06:51:02;;;;;;;13.13;7.03;;;8.30;99.90;;;;;;5117290;28;20185;-83
2020/12/24 06:53:39;;;;;;;20.43;9.10;;;8.10;99.90;;;;;;5095864;28;20320;-82
2020/12/24 06:56:16;;;;;;;20.97;11.67;;;8.00;99.90;;;;;;5109286;28;20208;-82
2020/12/24 06:58:49;;;;;;;22.40;10.80;;;7.70;99.90;;;;;;5113288;28;20189;-82
2020/12/24 07:01:29;;;;;;;16.57;9.67;;;7.50;99.90;;;;;;5114407;28;20561;-81
2020/12/24 07:04:00;;;;;;;15.57;10.77;;;7.40;99.90;;;;;;5107444;28;20178;-84
2020/12/24 07:06:41;;;;;;;23.83;12.03;;;7.30;99.90;;;;;;5115886;27;20253;-81
2020/12/24 07:09:08;;;;;;;18.10;13.77;;;7.20;99.90;;;;;;5119877;28;20656;-84
2020/12/24 07:11:44;;;;;;;21.27;16.10;;;7.20;99.90;;;;;;5116163;28;20212;-83
2020/12/24 07:14:28;;;;;;;20.40;17.10;;;6.90;99.90;;;;;;5117172;28;20229;-84
2020/12/24 07:16:56;;;;;;;24.37;18.87;;;6.80;99.90;;;;;;5110506;28;20193;-83
2020/12/24 07:19:22;;;;;;;30.10;24.07;;;6.90;99.90;;;;;;5115603;28;20641;-83
2020/12/24 07:21:53;;;;;;;31.43;27.30;;;6.70;99.90;;;;;;5118041;28;20177;-83
2020/12/24 07:24:31;;;;;;;32.27;27.93;;;6.80;99.90;;;;;;5117940;28;20174;-83
2020/12/24 07:26:58;;;;;;;31.67;28.43;;;6.80;99.90;;;;;;5097302;28;20186;-83
2020/12/24 07:29:28;;;;;;;34.93;31.37;;;6.70;99.90;;;;;;5098975;28;20210;-82
2020/12/24 07:31:55;;;;;;;38.27;34.30;;;6.70;99.90;;;;;;5108837;28;20181;-83
2020/12/24 07:34:25;;;;;;;36.73;32.87;;;6.70;99.90;;;;;;5117192;28;20630;-83
2020/12/24 07:36:51;;;;;;;32.00;28.97;;;6.70;99.90;;;;;;5115843;28;20216;-83
2020/12/24 07:39:16;;;;;;;30.53;27.73;;;6.70;99.90;;;;;;5098474;28;20629;-83
2020/12/24 07:41:42;;;;;;;17.37;15.67;;;6.60;99.90;;;;;;5095747;28;20187;-83
2020/12/24 07:44:13;;;;;;;12.40;11.13;;;6.50;99.90;;;;;;5114658;28;20579;-81
2020/12/24 07:46:39;;;;;;;6.50;6.00;;;6.40;99.90;;;;;;5113604;28;20185;-81
2020/12/24 07:49:06;;;;;;;5.00;4.70;;;6.20;99.90;;;;;;5113323;28;20242;-82
2020/12/24 07:51:32;;;;;;;5.07;4.67;;;6.10;99.90;;;;;;5115070;28;20177;-81
2020/12/24 07:54:12;;;;;;;5.00;4.63;;;6.00;99.90;;;;;;5114040;28;20176;-82
2020/12/24 07:56:44;;;;;;;6.53;5.93;;;5.90;99.90;;;;;;5114892;28;20631;-82
2020/12/24 07:59:10;;;;;;;7.37;6.77;;;5.90;99.90;;;;;;5113437;28;20181;-80
2020/12/24 08:01:35;;;;;;;7.80;7.00;;;5.80;99.90;;;;;;5114398;28;20687;-82
2020/12/24 08:04:04;;;;;;;9.20;8.43;;;5.70;99.90;;;;;;5113327;28;20272;-83
2020/12/24 08:06:33;;;;;;;9.47;8.57;;;5.70;99.90;;;;;;5113573;28;20182;-83
2020/12/24 08:09:08;;;;;;;9.97;9.17;;;5.60;99.90;;;;;;5113831;28;20173;-83
2020/12/24 08:11:34;;;;;;;10.23;9.43;;;5.60;99.90;;;;;;5115552;28;20180;-83
2020/12/24 08:13:59;;;;;;;8.13;7.27;;;5.50;99.90;;;;;;5116301;28;20234;-83
2020/12/24 08:16:27;;;;;;;6.03;5.53;;;5.40;99.90;;;;;;5114597;28;20720;-84
2020/12/24 08:18:59;;;;;;;4.83;4.50;;;5.30;99.90;;;;;;5113614;28;20184;-83
2020/12/24 08:21:31;;;;;;;4.30;4.00;;;5.30;99.90;;;;;;5099205;28;20663;-83
2020/12/24 08:24:02;;;;;;;4.00;3.70;;;5.30;99.90;;;;;;5113096;28;20225;-83
2020/12/24 08:26:28;;;;;;;3.10;2.90;;;5.30;99.90;;;;;;5115645;28;20176;-82
2020/12/24 08:29:01;;;;;;;3.47;3.10;;;5.20;99.90;;;;;;5115860;28;20204;-84
2020/12/24 08:31:28;;;;;;;3.20;3.00;;;5.30;99.90;;;;;;5117625;28;20180;-83
2020/12/24 08:33:54;;;;;;;3.23;2.93;;;5.30;99.90;;;;;;5109846;28;20249;-84
2020/12/24 08:36:27;;;;;;;2.90;2.60;;;5.30;99.90;;;;;;5111900;28;20197;-84
2020/12/24 08:39:07;;;;;;;3.00;2.80;;;5.30;99.90;;;;;;5115998;28;20249;-83
2020/12/24 08:41:45;;;;;;;2.93;2.73;;;5.30;99.90;;;;;;5115343;28;20286;-83
2020/12/24 08:44:18;;;;;;;3.37;3.07;;;5.30;99.90;;;;;;5113560;28;20249;-84
2020/12/24 08:46:45;;;;;;;3.30;3.00;;;5.20;99.90;;;;;;5106466;28;20522;-84
2020/12/24 08:49:26;;;;;;;2.87;2.67;;;5.20;99.90;;;;;;5099489;28;20183;-83
2020/12/24 08:52:33;;;;;;;3.20;2.90;;;5.20;99.90;;;;;;5115192;28;20670;-83
2020/12/24 08:55:07;;;;;;;4.83;2.60;;;5.20;99.90;;;;;;5053219;28;20210;-83
2020/12/24 08:57:37;;;;;;;2.47;2.27;;;5.20;99.90;;;;;;5104829;28;20201;-82
2020/12/24 09:00:12;;;;;;;3.27;2.50;;;5.10;99.90;;;;;;5116071;28;20576;-83
2020/12/24 09:02:38;;;;;;;2.63;2.17;;;5.20;99.90;;;;;;5115753;28;20181;-83
2020/12/24 09:05:06;;;;;;;2.47;1.93;;;5.20;99.90;;;;;;5117079;28;20177;-83
2020/12/24 09:07:50;;;;;;;2.57;1.90;;;5.20;99.90;;;;;;5118168;28;20176;-82
2020/12/24 09:10:24;;;;;;;1.87;1.77;;;5.20;99.90;;;;;;5113499;28;20173;-83
2020/12/24 09:12:58;;;;;;;2.37;2.00;;;5.30;99.90;;;;;;5099557;28;20280;-82
2020/12/24 09:15:26;;;;;;;2.13;2.03;;;5.30;99.90;;;;;;5113012;28;20529;-82
2020/12/24 09:17:57;;;;;;;1.90;1.80;;;5.30;99.90;;;;;;5111980;28;20203;-82
2020/12/24 09:20:31;;;;;;;4.13;2.00;;;5.30;99.90;;;;;;5112361;28;20204;-82
2020/12/24 09:23:11;;;;;;;3.30;2.00;;;5.30;99.90;;;;;;5101215;28;20226;-81
2020/12/24 09:25:44;;;;;;;2.30;2.10;;;5.30;99.90;;;;;;5107856;27;20669;-82
2020/12/24 09:28:21;;;;;;;2.90;2.27;;;5.40;99.90;;;;;;5116365;28;20180;-81
2020/12/24 09:30:47;;;;;;;2.20;2.07;;;5.40;99.90;;;;;;5111273;28;20211;-82
2020/12/24 09:33:17;;;;;;;2.83;2.23;;;5.40;99.90;;;;;;5080223;28;20243;-83
2020/12/24 09:35:42;;;;;;;2.77;2.57;;;5.40;99.90;;;;;;5137361;28;20212;-82
2020/12/24 09:38:08;;;;;;;3.47;3.17;;;5.40;99.90;;;;;;5100728;28;20188;-83
2020/12/24 09:40:34;;;;;;;3.53;3.23;;;5.50;99.90;;;;;;5122141;27;20210;-82
2020/12/24 09:43:01;;;;;;;3.77;3.00;;;5.50;99.90;;;;;;5110558;28;20197;-82
2020/12/24 09:45:28;;;;;;;4.13;3.20;;;5.60;99.90;;;;;;5093849;28;20271;-82
2020/12/24 09:47:54;;;;;;;3.80;3.50;;;5.50;99.90;;;;;;5112293;28;20190;-81
2020/12/24 09:50:20;;;;;;;3.83;3.53;;;5.60;99.90;;;;;;5112752;28;20655;-81
2020/12/24 09:52:45;;;;;;;3.43;3.13;;;5.60;99.90;;;;;;5113523;27;20217;-81
2020/12/24 09:55:11;;;;;;;3.60;3.30;;;5.60;99.90;;;;;;5103621;28;20192;-82
2020/12/24 09:57:37;;;;;;;4.77;3.50;;;5.60;99.90;;;;;;5084847;28;20198;-80
2020/12/24 10:00:10;;;;;;;3.53;3.33;;;5.60;99.90;;;;;;5106182;28;20196;-79
2020/12/24 10:02:37;;;;;;;5.63;3.40;;;5.60;99.90;;;;;;5125808;27;20180;-82
2020/12/24 10:05:06;;;;;;;5.03;3.43;;;5.60;99.90;;;;;;5108003;28;20642;-83
2020/12/24 10:07:32;;;;;;;3.60;3.30;;;5.70;99.90;;;;;;5114603;28;20204;-80
2020/12/24 10:09:58;;;;;;;4.37;3.70;;;5.70;99.90;;;;;;5128319;27;20521;-81
2020/12/24 10:12:26;;;;;;;4.00;3.67;;;5.70;99.90;;;;;;5119720;27;20187;-80
2020/12/24 10:14:55;;;;;;;3.97;3.67;;;5.70;99.90;;;;;;5095082;28;20178;-80
2020/12/24 10:17:24;;;;;;;3.60;3.30;;;5.70;99.90;;;;;;5117949;27;20181;-81
2020/12/24 10:19:55;;;;;;;3.80;3.47;;;5.80;99.90;;;;;;5104401;28;20280;-82
2020/12/24 10:22:22;;;;;;;4.00;3.60;;;5.90;99.90;;;;;;5122827;27;20194;-81
2020/12/24 10:24:47;;;;;;;4.67;4.00;;;5.80;99.90;;;;;;5109935;28;20743;-81
2020/12/24 10:27:13;;;;;;;3.97;3.57;;;5.70;99.90;;;;;;5115379;28;20177;-80
2020/12/24 10:29:40;;;;;;;4.73;3.80;;;5.70;99.90;;;;;;5133336;28;20246;-81
2020/12/24 10:32:06;;;;;;;6.67;4.47;;;5.80;99.90;;;;;;5141585;27;20181;-80
2020/12/24 10:34:32;;;;;;;6.20;4.20;;;5.80;99.90;;;;;;5136390;27;20188;-80
2020/12/24 10:37:00;;;;;;;5.30;4.87;;;5.70;99.90;;;;;;5139096;27;20204;-80
2020/12/24 10:39:27;;;;;;;6.17;4.90;;;5.80;99.90;;;;;;5148095;27;20169;-80
2020/12/24 10:41:53;;;;;;;4.73;4.23;;;5.90;99.90;;;;;;5125019;28;20214;-79
2020/12/24 10:44:18;;;;;;;5.27;4.67;;;5.80;99.90;;;;;;5125951;28;20185;-80
2020/12/24 10:46:44;;;;;;;5.63;4.20;;;5.70;99.90;;;;;;5134224;27;20204;-82
2020/12/24 10:49:10;;;;;;;5.63;3.90;;;5.70;99.90;;;;;;5141083;27;20233;-81
2020/12/24 10:51:36;;;;;;;4.63;3.80;;;5.70;99.90;;;;;;5140658;27;20212;-81
2020/12/24 10:54:03;;;;;;;4.60;4.07;;;5.70;99.90;;;;;;5133441;27;20255;-81
2020/12/24 10:56:28;;;;;;;8.97;4.00;;;5.80;99.90;;;;;;5131134;27;20158;-80
2020/12/24 10:58:54;;;;;;;6.43;4.50;;;5.90;99.90;;;;;;5147434;27;20186;-82
2020/12/24 11:01:20;;;;;;;5.27;3.63;;;5.90;99.90;;;;;;5125406;27;20290;-80
2020/12/24 11:03:46;;;;;;;3.77;3.47;;;5.90;99.90;;;;;;5148784;27;20169;-80
2020/12/24 11:06:17;;;;;;;6.67;4.10;;;5.90;99.90;;;;;;5108983;28;20197;-80
2020/12/24 11:08:43;;;;;;;6.23;3.80;;;6.00;99.90;;;;;;5121121;28;20174;-80
2020/12/24 11:11:09;;;;;;;7.43;4.03;;;5.90;99.90;;;;;;5125124;27;20233;-81
2020/12/24 11:13:34;;;;;;;6.07;3.57;;;6.00;99.90;;;;;;5088057;27;20275;-81
2020/12/24 11:16:00;;;;;;;4.17;3.10;;;6.00;99.90;;;;;;5092426;28;20205;-81
2020/12/24 11:18:26;;;;;;;4.77;3.07;;;6.10;99.90;;;;;;5105503;28;20201;-81
2020/12/24 11:20:53;;;;;;;7.87;3.40;;;6.00;99.90;;;;;;5124301;27;20208;-80
2020/12/24 11:23:19;;;;;;;8.00;3.53;;;6.10;99.90;;;;;;5121250;27;20181;-81
2020/12/24 11:25:45;;;;;;;8.50;3.67;;;6.10;99.90;;;;;;5115518;28;20189;-81
2020/12/24 11:28:10;;;;;;;6.47;3.50;;;6.10;99.90;;;;;;5110266;27;20216;-81
2020/12/24 11:30:36;;;;;;;5.40;2.80;;;6.10;99.90;;;;;;5102898;28;20561;-81
2020/12/24 11:33:02;;;;;;;5.03;3.10;;;6.10;99.90;;;;;;5115198;27;20541;-82
2020/12/24 11:35:28;;;;;;;5.30;2.83;;;6.10;99.90;;;;;;5108140;27;20212;-82
2020/12/24 11:37:54;;;;;;;6.67;2.80;;;6.10;99.90;;;;;;5132476;27;20188;-82
2020/12/24 11:40:20;;;;;;;8.40;2.53;;;6.10;99.90;;;;;;5103317;28;20200;-82
2020/12/24 11:42:45;;;;;;;4.60;2.63;;;6.10;99.90;;;;;;5104889;28;20206;-82
2020/12/24 11:45:12;;;;;;;6.70;2.70;;;6.10;99.90;;;;;;5119405;27;20224;-81
2020/12/24 11:47:37;;;;;;;5.70;2.60;;;6.10;99.90;;;;;;5118289;27;20241;-81
2020/12/24 11:50:05;;;;;;;5.23;2.60;;;6.10;99.90;;;;;;5119004;27;20216;-82
2020/12/24 11:52:35;;;;;;;5.77;2.70;;;6.10;99.90;;;;;;5116598;28;20178;-82
2020/12/24 11:55:01;;;;;;;5.63;2.30;;;6.10;99.90;;;;;;5118983;28;20189;-83
2020/12/24 11:57:27;;;;;;;4.50;2.33;;;6.00;99.90;;;;;;5116748;27;20181;-83
2020/12/24 11:59:52;;;;;;;2.57;1.80;;;6.10;99.90;;;;;;5097026;28;20884;-83
2020/12/24 12:02:18;;;;;;;3.83;2.20;;;6.20;99.90;;;;;;5100083;27;20266;-82
2020/12/24 12:04:44;;;;;;;5.30;1.83;;;6.20;99.90;;;;;;5083210;27;20224;-83
2020/12/24 12:07:09;;;;;;;4.50;2.00;;;6.20;99.90;;;;;;5096257;28;20184;-84
2020/12/24 12:09:35;;;;;;;5.30;2.00;;;6.30;99.90;;;;;;5104591;28;20248;-82
2020/12/24 12:12:00;;;;;;;3.97;2.00;;;6.40;99.90;;;;;;5113511;28;20180;-84
2020/12/24 12:14:26;;;;;;;3.93;1.87;;;6.40;99.90;;;;;;5104455;28;20229;-83
2020/12/24 12:16:51;;;;;;;7.60;2.40;;;6.50;99.90;;;;;;5113599;28;20233;-82
2020/12/24 12:19:17;;;;;;;4.07;1.80;;;6.70;99.90;;;;;;5114822;27;20181;-83
2020/12/24 12:21:44;;;;;;;6.30;1.77;;;6.70;99.90;;;;;;5113201;28;20204;-83
2020/12/24 12:24:09;;;;;;;4.17;2.00;;;6.70;99.90;;;;;;5113578;28;20542;-83
2020/12/24 12:26:35;;;;;;;2.77;1.50;;;7.00;99.90;;;;;;5075612;28;20272;-83
2020/12/24 12:29:01;;;;;;;6.60;1.87;;;7.00;99.90;;;;;;5105890;27;20288;-83
2020/12/24 12:31:26;;;;;;;9.10;2.20;;;7.10;99.90;;;;;;5096041;28;20173;-82
2020/12/24 12:33:53;;;;;;;3.47;1.90;;;7.00;99.90;;;;;;5111835;28;20543;-83
2020/12/24 12:36:20;;;;;;;4.30;1.90;;;7.10;99.90;;;;;;5113478;28;20640;-83
2020/12/24 12:38:47;;;;;;;4.77;2.60;;;7.20;99.90;;;;;;5114466;28;20180;-83
2020/12/24 12:41:14;;;;;;;4.37;1.90;;;7.60;99.90;;;;;;5121962;28;20190;-82
2020/12/24 12:43:43;;;;;;;5.10;1.67;;;7.50;99.90;;;;;;5123019;28;20177;-81
2020/12/24 12:46:09;;;;;;;5.93;2.43;;;7.50;99.90;;;;;;5104671;28;20178;-82
2020/12/24 12:48:35;;;;;;;4.30;2.20;;;7.30;99.90;;;;;;5123578;28;20716;-81
2020/12/24 12:51:01;;;;;;;5.93;1.97;;;7.20;99.90;;;;;;5121273;27;20236;-82
2020/12/24 12:53:27;;;;;;;4.63;2.30;;;7.10;99.90;;;;;;5098614;27;20183;-81
2020/12/24 12:55:53;;;;;;;5.17;2.37;;;7.00;99.90;;;;;;5113468;27;20182;-81